createdAt,value
2023-10-13T02:41:24.205Z,14.29
2023-10-13T03:15:56.819Z,14.56
2023-10-13T03:19:20.938Z,14.60
2023-10-13T03:26:22.222Z,14.66
2023-10-13T03:29:25.635Z,14.71
2023-10-13T06:20:40.708Z,15.00
2023-10-13T06:27:55.085Z,15.17
2023-10-13T06:31:35.586Z,15.28
2023-10-13T06:38:11.353Z,15.40
2023-10-13T06:48:14.875Z,15.54
2023-10-13T06:59:17.940Z,15.73
2023-10-13T07:02:37.656Z,15.70
2023-10-13T07:06:13.123Z,15.76
2023-10-13T07:10:15.034Z,15.78
2023-10-13T07:22:27.466Z,16.00
2023-10-13T09:41:19.349Z,19.55
2023-10-13T09:44:37.504Z,19.56
2023-10-13T09:48:03.302Z,19.64
2023-10-13T09:51:15.206Z,19.71
2023-10-13T09:55:22.231Z,19.80
2023-10-13T09:59:06.978Z,19.87
2023-10-13T10:03:08.916Z,19.88
2023-10-13T10:11:28.347Z,19.97
2023-10-13T10:15:23.015Z,20.18
2023-10-13T10:18:29.837Z,20.49
2023-10-13T10:21:38.680Z,20.40
2023-10-13T10:25:08.968Z,20.21
2023-10-13T10:28:19.105Z,20.28
2023-10-13T10:31:52.059Z,20.41
2023-10-13T10:35:37.581Z,20.50
2023-10-13T10:39:10.196Z,20.62
2023-10-13T10:42:36.438Z,20.74
2023-10-13T10:55:49.980Z,21.52
2023-10-13T10:59:37.869Z,21.52
2023-10-13T11:03:23.431Z,21.65
2023-10-13T11:06:39.039Z,21.95
2023-10-13T11:10:53.726Z,22.11
2023-10-13T11:14:41.993Z,22.30
2023-10-13T11:18:09.213Z,22.29
2023-10-13T11:21:37.403Z,22.58
2023-10-13T11:24:57.115Z,22.81
2023-10-13T11:28:51.726Z,22.91
2023-10-13T11:35:49.048Z,23.19
2023-10-13T11:39:12.794Z,23.41
2023-10-13T11:46:59.755Z,23.66
2023-10-13T11:53:49.169Z,24.04
2023-10-13T11:56:52.631Z,24.12
2023-10-13T12:04:43.360Z,24.24
2023-10-13T12:08:45.093Z,24.38
2023-10-13T12:12:09.259Z,24.56
2023-10-13T15:11:50.276Z,22.81
2023-10-13T15:15:39.523Z,22.62
2023-10-13T15:19:06.432Z,22.42
2023-10-13T15:22:11.123Z,22.26
2023-10-13T15:25:35.992Z,22.06
2023-10-13T15:32:50.515Z,21.64
2023-10-13T15:36:17.061Z,21.54
2023-10-13T15:39:38.993Z,21.37
2023-10-13T15:43:11.860Z,21.16
2023-10-13T15:50:11.230Z,20.71
2023-10-13T15:53:31.270Z,20.56
2023-10-13T15:57:07.772Z,20.34
2023-10-13T16:00:27.607Z,20.15
2023-10-13T16:07:20.088Z,19.88
2023-10-13T16:10:46.285Z,19.61
2023-10-13T16:13:59.043Z,19.46
2023-10-13T16:17:20.741Z,19.30
2023-10-13T16:20:42.833Z,19.23
2023-10-13T16:28:13.626Z,18.99
2023-10-13T16:31:43.430Z,18.84
2023-10-13T16:35:02.183Z,18.72
2023-10-13T16:38:44.762Z,18.57
2023-10-13T16:42:49.953Z,18.50
2023-10-13T16:45:58.071Z,18.35
2023-10-13T16:49:52.678Z,18.24
2023-10-13T18:12:26.276Z,16.62
2023-10-13T18:15:42.362Z,16.64
2023-10-13T18:19:16.392Z,16.65
2023-10-13T18:22:58.376Z,16.73
2023-10-13T18:26:32.627Z,16.90
2023-10-13T18:30:25.135Z,16.99
2023-10-13T18:33:37.037Z,16.95
2023-10-13T18:37:06.367Z,16.93
2023-10-13T22:14:17.918Z,14.59
2023-10-13T22:17:37.821Z,14.51
2023-10-13T22:20:56.060Z,14.50
